Terminal Aerodrome Forecast
Issued by NWS Twin Cities, MN

Home | Current Version | Previous Version | Text Only | Print | Product List | Glossary Off
Versions: 1 2 3 4 5 6 7 8 9 10 11 12 13 14 15 16 17 18 19 20 21

031
FTUS43 KMPX 052329
TAFSTC
TAF
KSTC 052329Z 0600/0624 15008KT P6SM VCSH OVC050
     FM060200 17012KT P6SM OVC035
     FM060600 22014G23KT P6SM OVC025
     FM061500 24019G30KT 5SM -SHSN OVC020
      TEMPO 0617/0621 2SM -SHSN OVC012=

USA.gov is the U.S. government's official web portal to all federal, state and local government web resources and services.